sensor_id;sensor_type;location;lat;lon;timestamp;P1;durP1;ratioP1;P2;durP2;ratioP2
32613;SDS011;19031;51.400;6.770;2023-04-24T00:01:30;3.95;;;0.32;;
32613;SDS011;19031;51.400;6.770;2023-04-24T00:03:56;2.63;;;0.63;;
32613;SDS011;19031;51.400;6.770;2023-04-24T00:06:24;1.75;;;0.60;;
32613;SDS011;19031;51.400;6.770;2023-04-24T00:11:25;0.60;;;0.40;;
32613;SDS011;19031;51.400;6.770;2023-04-24T00:13:51;1.02;;;0.40;;
32613;SDS011;19031;51.400;6.770;2023-04-24T00:16:17;0.90;;;0.30;;
32613;SDS011;19031;51.400;6.770;2023-04-24T00:18:42;1.42;;;0.30;;
32613;SDS011;19031;51.400;6.770;2023-04-24T00:21:09;0.38;;;0.38;;
32613;SDS011;19031;51.400;6.770;2023-04-24T00:23:35;1.25;;;0.50;;
32613;SDS011;19031;51.400;6.770;2023-04-24T00:26:01;0.55;;;0.50;;
32613;SDS011;19031;51.400;6.770;2023-04-24T00:28:27;2.05;;;0.45;;
32613;SDS011;19031;51.400;6.770;2023-04-24T00:30:53;0.35;;;0.32;;
32613;SDS011;19031;51.400;6.770;2023-04-24T00:33:21;0.75;;;0.45;;
32613;SDS011;19031;51.400;6.770;2023-04-24T00:35:52;0.85;;;0.50;;
32613;SDS011;19031;51.400;6.770;2023-04-24T00:38:18;0.52;;;0.50;;
32613;SDS011;19031;51.400;6.770;2023-04-24T00:40:43;0.35;;;0.32;;
32613;SDS011;19031;51.400;6.770;2023-04-24T00:43:09;0.88;;;0.60;;
32613;SDS011;19031;51.400;6.770;2023-04-24T00:45:35;6.80;;;0.80;;
32613;SDS011;19031;51.400;6.770;2023-04-24T00:48:01;3.35;;;0.90;;
32613;SDS011;19031;51.400;6.770;2023-04-24T00:50:30;1.10;;;0.63;;
32613;SDS011;19031;51.400;6.770;2023-04-24T00:52:56;2.28;;;1.10;;
32613;SDS011;19031;51.400;6.770;2023-04-24T00:55:22;6.55;;;1.83;;
32613;SDS011;19031;51.400;6.770;2023-04-24T00:57:47;4.78;;;1.48;;
32613;SDS011;19031;51.400;6.770;2023-04-24T01:00:16;2.83;;;1.52;;
32613;SDS011;19031;51.400;6.770;2023-04-24T01:02:43;2.85;;;1.67;;
32613;SDS011;19031;51.400;6.770;2023-04-24T01:05:12;2.47;;;1.60;;
32613;SDS011;19031;51.400;6.770;2023-04-24T01:07:40;4.72;;;2.22;;
32613;SDS011;19031;51.400;6.770;2023-04-24T01:10:09;5.55;;;2.05;;
32613;SDS011;19031;51.400;6.770;2023-04-24T01:12:35;2.38;;;1.88;;
32613;SDS011;19031;51.400;6.770;2023-04-24T01:15:04;8.23;;;2.05;;
32613;SDS011;19031;51.400;6.770;2023-04-24T01:17:31;7.93;;;2.72;;
32613;SDS011;19031;51.400;6.770;2023-04-24T01:19:57;4.30;;;2.45;;
32613;SDS011;19031;51.400;6.770;2023-04-24T01:22:24;5.00;;;2.45;;
32613;SDS011;19031;51.400;6.770;2023-04-24T01:24:50;3.83;;;2.28;;
32613;SDS011;19031;51.400;6.770;2023-04-24T01:27:17;4.20;;;2.10;;
32613;SDS011;19031;51.400;6.770;2023-04-24T01:29:42;5.00;;;2.65;;
32613;SDS011;19031;51.400;6.770;2023-04-24T01:32:08;7.88;;;2.70;;
32613;SDS011;19031;51.400;6.770;2023-04-24T01:34:34;6.18;;;2.33;;
32613;SDS011;19031;51.400;6.770;2023-04-24T01:37:00;5.28;;;2.13;;
32613;SDS011;19031;51.400;6.770;2023-04-24T01:39:26;4.22;;;2.15;;
32613;SDS011;19031;51.400;6.770;2023-04-24T01:41:53;7.53;;;3.03;;
32613;SDS011;19031;51.400;6.770;2023-04-24T01:44:19;3.65;;;2.13;;
32613;SDS011;19031;51.400;6.770;2023-04-24T01:46:45;2.50;;;1.77;;
32613;SDS011;19031;51.400;6.770;2023-04-24T01:49:11;5.45;;;2.22;;
32613;SDS011;19031;51.400;6.770;2023-04-24T01:51:37;7.70;;;2.63;;
32613;SDS011;19031;51.400;6.770;2023-04-24T01:54:02;2.83;;;2.00;;
32613;SDS011;19031;51.400;6.770;2023-04-24T01:56:29;6.00;;;2.17;;
32613;SDS011;19031;51.400;6.770;2023-04-24T01:58:55;3.63;;;2.13;;
32613;SDS011;19031;51.400;6.770;2023-04-24T02:01:23;4.68;;;2.75;;
32613;SDS011;19031;51.400;6.770;2023-04-24T02:03:49;5.38;;;2.60;;
32613;SDS011;19031;51.400;6.770;2023-04-24T02:06:15;7.95;;;3.33;;
32613;SDS011;19031;51.400;6.770;2023-04-24T02:08:41;6.18;;;3.05;;
32613;SDS011;19031;51.400;6.770;2023-04-24T02:11:08;5.13;;;3.15;;
32613;SDS011;19031;51.400;6.770;2023-04-24T02:13:34;5.75;;;3.17;;
32613;SDS011;19031;51.400;6.770;2023-04-24T02:16:00;8.07;;;3.10;;
32613;SDS011;19031;51.400;6.770;2023-04-24T02:18:25;7.53;;;3.20;;
32613;SDS011;19031;51.400;6.770;2023-04-24T02:20:51;5.82;;;2.40;;
32613;SDS011;19031;51.400;6.770;2023-04-24T02:23:17;5.15;;;2.92;;
32613;SDS011;19031;51.400;6.770;2023-04-24T02:25:42;6.35;;;3.42;;
32613;SDS011;19031;51.400;6.770;2023-04-24T02:28:08;5.88;;;3.38;;
32613;SDS011;19031;51.400;6.770;2023-04-24T02:30:33;6.72;;;4.00;;
32613;SDS011;19031;51.400;6.770;2023-04-24T02:32:59;7.07;;;3.88;;
32613;SDS011;19031;51.400;6.770;2023-04-24T02:35:25;8.38;;;3.42;;
32613;SDS011;19031;51.400;6.770;2023-04-24T02:37:50;8.20;;;3.88;;
32613;SDS011;19031;51.400;6.770;2023-04-24T02:40:16;9.30;;;3.95;;
32613;SDS011;19031;51.400;6.770;2023-04-24T02:42:41;7.72;;;4.28;;
32613;SDS011;19031;51.400;6.770;2023-04-24T02:45:07;8.25;;;4.20;;
32613;SDS011;19031;51.400;6.770;2023-04-24T02:47:33;9.68;;;4.35;;
32613;SDS011;19031;51.400;6.770;2023-04-24T02:49:58;10.80;;;4.82;;
32613;SDS011;19031;51.400;6.770;2023-04-24T02:52:24;8.15;;;4.10;;
32613;SDS011;19031;51.400;6.770;2023-04-24T02:54:50;9.52;;;4.57;;
32613;SDS011;19031;51.400;6.770;2023-04-24T02:57:15;8.77;;;4.55;;
32613;SDS011;19031;51.400;6.770;2023-04-24T02:59:41;8.45;;;4.18;;
32613;SDS011;19031;51.400;6.770;2023-04-24T03:02:06;13.73;;;4.45;;
32613;SDS011;19031;51.400;6.770;2023-04-24T03:04:32;17.67;;;5.50;;
32613;SDS011;19031;51.400;6.770;2023-04-24T03:06:57;9.32;;;4.72;;
32613;SDS011;19031;51.400;6.770;2023-04-24T03:09:23;8.68;;;4.63;;
32613;SDS011;19031;51.400;6.770;2023-04-24T03:11:49;7.50;;;4.55;;
32613;SDS011;19031;51.400;6.770;2023-04-24T03:14:15;8.65;;;4.30;;
32613;SDS011;19031;51.400;6.770;2023-04-24T03:16:41;10.48;;;4.60;;
32613;SDS011;19031;51.400;6.770;2023-04-24T03:19:07;9.43;;;4.82;;
32613;SDS011;19031;51.400;6.770;2023-04-24T03:21:32;8.70;;;4.50;;
32613;SDS011;19031;51.400;6.770;2023-04-24T03:23:58;8.52;;;4.30;;
32613;SDS011;19031;51.400;6.770;2023-04-24T03:26:24;7.22;;;4.30;;
32613;SDS011;19031;51.400;6.770;2023-04-24T03:28:49;8.48;;;5.18;;
32613;SDS011;19031;51.400;6.770;2023-04-24T03:31:15;13.57;;;5.65;;
32613;SDS011;19031;51.400;6.770;2023-04-24T03:33:41;13.60;;;5.63;;
32613;SDS011;19031;51.400;6.770;2023-04-24T03:36:07;12.13;;;5.10;;
32613;SDS011;19031;51.400;6.770;2023-04-24T03:38:33;8.15;;;4.45;;
32613;SDS011;19031;51.400;6.770;2023-04-24T03:40:58;10.50;;;5.53;;
32613;SDS011;19031;51.400;6.770;2023-04-24T03:43:24;9.30;;;4.60;;
32613;SDS011;19031;51.400;6.770;2023-04-24T03:45:49;12.23;;;5.50;;
32613;SDS011;19031;51.400;6.770;2023-04-24T03:48:15;10.57;;;5.28;;
32613;SDS011;19031;51.400;6.770;2023-04-24T03:50:41;12.70;;;5.45;;
32613;SDS011;19031;51.400;6.770;2023-04-24T03:53:06;8.18;;;4.85;;
32613;SDS011;19031;51.400;6.770;2023-04-24T03:55:33;9.15;;;4.55;;
32613;SDS011;19031;51.400;6.770;2023-04-24T03:57:58;9.23;;;4.05;;
32613;SDS011;19031;51.400;6.770;2023-04-24T04:00:24;12.18;;;5.30;;
32613;SDS011;19031;51.400;6.770;2023-04-24T04:02:51;8.80;;;4.18;;
32613;SDS011;19031;51.400;6.770;2023-04-24T04:05:16;9.80;;;4.85;;
32613;SDS011;19031;51.400;6.770;2023-04-24T04:07:42;10.32;;;5.13;;
32613;SDS011;19031;51.400;6.770;2023-04-24T04:10:07;13.13;;;5.53;;
32613;SDS011;19031;51.400;6.770;2023-04-24T04:12:33;11.77;;;4.38;;
32613;SDS011;19031;51.400;6.770;2023-04-24T04:14:59;10.35;;;4.68;;
32613;SDS011;19031;51.400;6.770;2023-04-24T04:17:25;7.30;;;4.60;;
32613;SDS011;19031;51.400;6.770;2023-04-24T04:19:50;6.85;;;4.38;;
32613;SDS011;19031;51.400;6.770;2023-04-24T04:22:16;8.98;;;4.55;;
32613;SDS011;19031;51.400;6.770;2023-04-24T04:24:41;11.30;;;4.75;;
32613;SDS011;19031;51.400;6.770;2023-04-24T04:27:08;9.23;;;5.18;;
32613;SDS011;19031;51.400;6.770;2023-04-24T04:29:33;7.93;;;4.30;;
32613;SDS011;19031;51.400;6.770;2023-04-24T04:31:59;7.72;;;4.10;;
32613;SDS011;19031;51.400;6.770;2023-04-24T04:34:26;9.40;;;5.07;;
32613;SDS011;19031;51.400;6.770;2023-04-24T04:36:51;9.40;;;4.20;;
32613;SDS011;19031;51.400;6.770;2023-04-24T04:39:17;9.27;;;4.53;;
32613;SDS011;19031;51.400;6.770;2023-04-24T04:41:43;8.27;;;3.95;;
32613;SDS011;19031;51.400;6.770;2023-04-24T04:44:11;9.95;;;4.93;;
32613;SDS011;19031;51.400;6.770;2023-04-24T04:46:37;8.70;;;4.38;;
32613;SDS011;19031;51.400;6.770;2023-04-24T04:49:03;8.65;;;4.65;;
32613;SDS011;19031;51.400;6.770;2023-04-24T04:51:29;6.93;;;4.30;;
32613;SDS011;19031;51.400;6.770;2023-04-24T04:53:55;8.82;;;4.00;;
32613;SDS011;19031;51.400;6.770;2023-04-24T04:56:21;7.07;;;3.85;;
32613;SDS011;19031;51.400;6.770;2023-04-24T04:58:47;8.13;;;3.97;;
32613;SDS011;19031;51.400;6.770;2023-04-24T05:01:13;11.57;;;3.83;;
32613;SDS011;19031;51.400;6.770;2023-04-24T05:03:38;7.07;;;3.17;;
32613;SDS011;19031;51.400;6.770;2023-04-24T05:06:04;5.30;;;3.47;;
32613;SDS011;19031;51.400;6.770;2023-04-24T05:08:30;6.72;;;3.78;;
32613;SDS011;19031;51.400;6.770;2023-04-24T05:10:56;6.50;;;4.07;;
32613;SDS011;19031;51.400;6.770;2023-04-24T05:13:21;5.95;;;3.55;;
32613;SDS011;19031;51.400;6.770;2023-04-24T05:15:47;9.38;;;4.45;;
32613;SDS011;19031;51.400;6.770;2023-04-24T05:18:13;6.70;;;3.90;;
32613;SDS011;19031;51.400;6.770;2023-04-24T05:20:38;10.57;;;4.60;;
32613;SDS011;19031;51.400;6.770;2023-04-24T05:23:04;7.28;;;4.13;;
32613;SDS011;19031;51.400;6.770;2023-04-24T05:25:30;5.57;;;4.18;;
32613;SDS011;19031;51.400;6.770;2023-04-24T05:28:00;6.85;;;4.60;;
32613;SDS011;19031;51.400;6.770;2023-04-24T05:30:25;6.53;;;4.20;;
32613;SDS011;19031;51.400;6.770;2023-04-24T05:32:51;7.65;;;4.43;;
32613;SDS011;19031;51.400;6.770;2023-04-24T05:35:17;9.43;;;4.38;;
32613;SDS011;19031;51.400;6.770;2023-04-24T05:37:43;6.47;;;4.25;;
32613;SDS011;19031;51.400;6.770;2023-04-24T05:40:09;6.68;;;4.03;;
32613;SDS011;19031;51.400;6.770;2023-04-24T05:42:36;9.93;;;4.15;;
32613;SDS011;19031;51.400;6.770;2023-04-24T05:45:01;7.03;;;4.28;;
32613;SDS011;19031;51.400;6.770;2023-04-24T05:47:27;9.15;;;3.75;;
32613;SDS011;19031;51.400;6.770;2023-04-24T05:49:53;8.93;;;4.40;;
32613;SDS011;19031;51.400;6.770;2023-04-24T05:52:18;4.88;;;3.35;;
32613;SDS011;19031;51.400;6.770;2023-04-24T05:54:44;5.68;;;3.67;;
32613;SDS011;19031;51.400;6.770;2023-04-24T05:57:10;7.72;;;3.72;;
32613;SDS011;19031;51.400;6.770;2023-04-24T05:59:36;6.15;;;3.78;;
32613;SDS011;19031;51.400;6.770;2023-04-24T06:02:06;6.78;;;3.67;;
32613;SDS011;19031;51.400;6.770;2023-04-24T06:04:32;7.00;;;3.35;;
32613;SDS011;19031;51.400;6.770;2023-04-24T06:06:58;6.80;;;3.53;;
32613;SDS011;19031;51.400;6.770;2023-04-24T06:09:24;5.85;;;3.88;;
32613;SDS011;19031;51.400;6.770;2023-04-24T06:11:50;7.55;;;3.72;;
32613;SDS011;19031;51.400;6.770;2023-04-24T06:14:18;6.13;;;3.40;;
32613;SDS011;19031;51.400;6.770;2023-04-24T06:16:44;5.85;;;3.63;;
32613;SDS011;19031;51.400;6.770;2023-04-24T06:19:10;9.18;;;3.88;;
32613;SDS011;19031;51.400;6.770;2023-04-24T06:21:35;8.10;;;4.55;;
32613;SDS011;19031;51.400;6.770;2023-04-24T06:24:01;5.97;;;3.53;;
32613;SDS011;19031;51.400;6.770;2023-04-24T06:26:27;6.30;;;3.33;;
32613;SDS011;19031;51.400;6.770;2023-04-24T06:28:53;7.18;;;3.53;;
32613;SDS011;19031;51.400;6.770;2023-04-24T06:31:19;7.45;;;3.10;;
32613;SDS011;19031;51.400;6.770;2023-04-24T06:33:45;6.07;;;3.70;;
32613;SDS011;19031;51.400;6.770;2023-04-24T06:36:11;4.50;;;3.30;;
32613;SDS011;19031;51.400;6.770;2023-04-24T06:38:37;5.90;;;3.53;;
32613;SDS011;19031;51.400;6.770;2023-04-24T06:41:03;4.05;;;2.80;;
32613;SDS011;19031;51.400;6.770;2023-04-24T06:43:30;5.15;;;2.55;;
32613;SDS011;19031;51.400;6.770;2023-04-24T06:45:57;5.18;;;3.22;;
32613;SDS011;19031;51.400;6.770;2023-04-24T06:48:23;4.65;;;2.55;;
32613;SDS011;19031;51.400;6.770;2023-04-24T06:50:53;11.82;;;3.50;;
32613;SDS011;19031;51.400;6.770;2023-04-24T06:53:18;5.70;;;2.83;;
32613;SDS011;19031;51.400;6.770;2023-04-24T06:55:47;4.85;;;2.50;;
32613;SDS011;19031;51.400;6.770;2023-04-24T06:58:13;4.63;;;2.58;;
32613;SDS011;19031;51.400;6.770;2023-04-24T07:00:43;5.68;;;3.13;;
32613;SDS011;19031;51.400;6.770;2023-04-24T07:03:08;5.43;;;2.40;;
32613;SDS011;19031;51.400;6.770;2023-04-24T07:05:34;5.50;;;2.28;;
32613;SDS011;19031;51.400;6.770;2023-04-24T07:08:03;4.55;;;2.10;;
32613;SDS011;19031;51.400;6.770;2023-04-24T07:10:28;4.00;;;2.17;;
32613;SDS011;19031;51.400;6.770;2023-04-24T07:12:58;14.43;;;2.30;;
32613;SDS011;19031;51.400;6.770;2023-04-24T07:15:23;3.05;;;1.58;;
32613;SDS011;19031;51.400;6.770;2023-04-24T07:17:49;6.05;;;3.13;;
32613;SDS011;19031;51.400;6.770;2023-04-24T07:20:17;6.40;;;3.45;;
32613;SDS011;19031;51.400;6.770;2023-04-24T07:22:43;8.15;;;2.17;;
32613;SDS011;19031;51.400;6.770;2023-04-24T07:25:09;2.92;;;1.48;;
32613;SDS011;19031;51.400;6.770;2023-04-24T07:27:34;3.33;;;1.50;;
32613;SDS011;19031;51.400;6.770;2023-04-24T07:30:01;1.67;;;1.05;;
32613;SDS011;19031;51.400;6.770;2023-04-24T07:32:27;3.42;;;0.90;;
32613;SDS011;19031;51.400;6.770;2023-04-24T07:34:53;2.70;;;1.55;;
32613;SDS011;19031;51.400;6.770;2023-04-24T07:37:19;2.22;;;1.08;;
32613;SDS011;19031;51.400;6.770;2023-04-24T07:39:45;4.95;;;1.85;;
32613;SDS011;19031;51.400;6.770;2023-04-24T07:42:11;4.22;;;2.13;;
32613;SDS011;19031;51.400;6.770;2023-04-24T07:44:36;2.92;;;1.20;;
32613;SDS011;19031;51.400;6.770;2023-04-24T07:47:02;1.17;;;0.73;;
32613;SDS011;19031;51.400;6.770;2023-04-24T07:49:27;2.25;;;0.77;;
32613;SDS011;19031;51.400;6.770;2023-04-24T07:51:53;1.35;;;0.55;;
32613;SDS011;19031;51.400;6.770;2023-04-24T07:54:18;2.42;;;1.23;;
32613;SDS011;19031;51.400;6.770;2023-04-24T07:56:44;2.05;;;1.27;;
32613;SDS011;19031;51.400;6.770;2023-04-24T07:59:10;1.90;;;1.15;;
32613;SDS011;19031;51.400;6.770;2023-04-24T08:01:35;3.42;;;1.27;;
32613;SDS011;19031;51.400;6.770;2023-04-24T08:04:01;5.82;;;1.90;;
32613;SDS011;19031;51.400;6.770;2023-04-24T08:06:27;10.10;;;1.88;;
32613;SDS011;19031;51.400;6.770;2023-04-24T08:08:55;5.88;;;1.77;;
32613;SDS011;19031;51.400;6.770;2023-04-24T08:11:21;2.85;;;1.45;;
32613;SDS011;19031;51.400;6.770;2023-04-24T08:13:47;10.45;;;2.20;;
32613;SDS011;19031;51.400;6.770;2023-04-24T08:16:12;4.22;;;1.17;;
32613;SDS011;19031;51.400;6.770;2023-04-24T08:18:38;2.20;;;1.23;;
32613;SDS011;19031;51.400;6.770;2023-04-24T08:21:04;3.78;;;1.85;;
32613;SDS011;19031;51.400;6.770;2023-04-24T08:23:29;3.72;;;1.25;;
32613;SDS011;19031;51.400;6.770;2023-04-24T08:25:55;2.10;;;1.02;;
32613;SDS011;19031;51.400;6.770;2023-04-24T08:28:22;1.92;;;0.95;;
32613;SDS011;19031;51.400;6.770;2023-04-24T08:30:47;1.65;;;0.73;;
32613;SDS011;19031;51.400;6.770;2023-04-24T08:33:13;1.52;;;1.15;;
32613;SDS011;19031;51.400;6.770;2023-04-24T08:35:40;1.00;;;0.57;;
32613;SDS011;19031;51.400;6.770;2023-04-24T08:38:05;0.80;;;0.50;;
32613;SDS011;19031;51.400;6.770;2023-04-24T08:40:31;0.95;;;0.43;;
32613;SDS011;19031;51.400;6.770;2023-04-24T08:42:59;0.28;;;0.28;;
32613;SDS011;19031;51.400;6.770;2023-04-24T08:45:25;0.60;;;0.43;;
32613;SDS011;19031;51.400;6.770;2023-04-24T08:47:54;0.50;;;0.30;;
32613;SDS011;19031;51.400;6.770;2023-04-24T08:50:21;3.10;;;0.70;;
32613;SDS011;19031;51.400;6.770;2023-04-24T08:52:48;0.35;;;0.30;;
32613;SDS011;19031;51.400;6.770;2023-04-24T08:55:15;0.73;;;0.30;;
32613;SDS011;19031;51.400;6.770;2023-04-24T08:57:45;1.27;;;0.63;;
32613;SDS011;19031;51.400;6.770;2023-04-24T09:00:15;2.92;;;0.38;;
32613;SDS011;19031;51.400;6.770;2023-04-24T09:02:44;1.95;;;0.73;;
32613;SDS011;19031;51.400;6.770;2023-04-24T09:05:12;1.67;;;0.60;;
32613;SDS011;19031;51.400;6.770;2023-04-24T09:07:39;2.05;;;1.00;;
32613;SDS011;19031;51.400;6.770;2023-04-24T09:10:07;1.85;;;1.35;;
32613;SDS011;19031;51.400;6.770;2023-04-24T09:12:34;2.22;;;1.42;;
32613;SDS011;19031;51.400;6.770;2023-04-24T09:15:00;3.35;;;2.00;;
32613;SDS011;19031;51.400;6.770;2023-04-24T09:17:28;4.93;;;2.30;;
32613;SDS011;19031;51.400;6.770;2023-04-24T09:19:56;5.35;;;2.60;;
32613;SDS011;19031;51.400;6.770;2023-04-24T09:22:21;5.50;;;2.33;;
32613;SDS011;19031;51.400;6.770;2023-04-24T09:24:47;3.10;;;1.80;;
32613;SDS011;19031;51.400;6.770;2023-04-24T09:27:24;2.83;;;1.52;;
32613;SDS011;19031;51.400;6.770;2023-04-24T09:29:53;2.88;;;1.85;;
32613;SDS011;19031;51.400;6.770;2023-04-24T09:32:21;3.13;;;1.95;;
32613;SDS011;19031;51.400;6.770;2023-04-24T09:34:49;4.13;;;2.15;;
32613;SDS011;19031;51.400;6.770;2023-04-24T09:37:29;2.78;;;1.73;;
32613;SDS011;19031;51.400;6.770;2023-04-24T09:40:11;3.05;;;2.30;;
32613;SDS011;19031;51.400;6.770;2023-04-24T09:42:45;8.35;;;2.58;;
32613;SDS011;19031;51.400;6.770;2023-04-24T09:45:21;5.68;;;2.22;;
32613;SDS011;19031;51.400;6.770;2023-04-24T09:47:51;3.63;;;2.15;;
32613;SDS011;19031;51.400;6.770;2023-04-24T09:50:21;6.32;;;3.03;;
32613;SDS011;19031;51.400;6.770;2023-04-24T09:52:47;5.70;;;2.80;;
32613;SDS011;19031;51.400;6.770;2023-04-24T09:55:26;5.57;;;2.65;;
32613;SDS011;19031;51.400;6.770;2023-04-24T09:57:56;4.97;;;2.65;;
32613;SDS011;19031;51.400;6.770;2023-04-24T10:00:25;9.77;;;3.05;;
32613;SDS011;19031;51.400;6.770;2023-04-24T10:02:59;6.93;;;2.38;;
32613;SDS011;19031;51.400;6.770;2023-04-24T10:05:34;8.70;;;2.70;;
32613;SDS011;19031;51.400;6.770;2023-04-24T10:08:01;15.50;;;3.28;;
32613;SDS011;19031;51.400;6.770;2023-04-24T10:10:28;6.68;;;2.72;;
32613;SDS011;19031;51.400;6.770;2023-04-24T10:12:54;3.90;;;2.22;;
32613;SDS011;19031;51.400;6.770;2023-04-24T10:15:20;7.95;;;2.35;;
32613;SDS011;19031;51.400;6.770;2023-04-24T10:17:47;5.45;;;2.22;;
32613;SDS011;19031;51.400;6.770;2023-04-24T10:20:17;3.28;;;2.20;;
32613;SDS011;19031;51.400;6.770;2023-04-24T10:22:45;4.82;;;1.85;;
32613;SDS011;19031;51.400;6.770;2023-04-24T10:25:15;5.63;;;1.92;;
32613;SDS011;19031;51.400;6.770;2023-04-24T10:27:42;4.70;;;2.22;;
32613;SDS011;19031;51.400;6.770;2023-04-24T10:30:08;4.72;;;1.92;;
32613;SDS011;19031;51.400;6.770;2023-04-24T10:32:35;3.83;;;1.80;;
32613;SDS011;19031;51.400;6.770;2023-04-24T10:35:01;5.78;;;2.42;;
32613;SDS011;19031;51.400;6.770;2023-04-24T10:37:27;4.82;;;2.10;;
32613;SDS011;19031;51.400;6.770;2023-04-24T10:39:53;9.20;;;1.83;;
32613;SDS011;19031;51.400;6.770;2023-04-24T10:42:20;8.82;;;2.35;;
32613;SDS011;19031;51.400;6.770;2023-04-24T10:44:47;7.18;;;2.20;;
32613;SDS011;19031;51.400;6.770;2023-04-24T10:47:14;4.20;;;1.52;;
32613;SDS011;19031;51.400;6.770;2023-04-24T10:49:39;7.30;;;2.00;;
32613;SDS011;19031;51.400;6.770;2023-04-24T10:52:05;8.50;;;1.77;;
32613;SDS011;19031;51.400;6.770;2023-04-24T10:54:35;5.40;;;1.73;;
32613;SDS011;19031;51.400;6.770;2023-04-24T10:59:48;6.97;;;2.10;;
32613;SDS011;19031;51.400;6.770;2023-04-24T11:02:15;12.48;;;1.90;;
32613;SDS011;19031;51.400;6.770;2023-04-24T11:04:42;14.25;;;2.28;;
32613;SDS011;19031;51.400;6.770;2023-04-24T11:07:09;4.97;;;2.25;;
32613;SDS011;19031;51.400;6.770;2023-04-24T11:09:35;9.70;;;2.20;;
32613;SDS011;19031;51.400;6.770;2023-04-24T11:12:07;7.72;;;2.97;;
32613;SDS011;19031;51.400;6.770;2023-04-24T11:17:33;3.92;;;1.90;;
32613;SDS011;19031;51.400;6.770;2023-04-24T11:20:03;3.40;;;2.13;;
32613;SDS011;19031;51.400;6.770;2023-04-24T11:22:32;3.90;;;1.45;;
32613;SDS011;19031;51.400;6.770;2023-04-24T11:25:02;4.70;;;1.33;;
32613;SDS011;19031;51.400;6.770;2023-04-24T11:27:30;2.88;;;1.20;;
32613;SDS011;19031;51.400;6.770;2023-04-24T11:30:00;7.70;;;1.48;;
32613;SDS011;19031;51.400;6.770;2023-04-24T11:32:34;5.07;;;1.80;;
32613;SDS011;19031;51.400;6.770;2023-04-24T11:37:40;8.95;;;1.95;;
32613;SDS011;19031;51.400;6.770;2023-04-24T11:40:08;5.22;;;1.88;;
32613;SDS011;19031;51.400;6.770;2023-04-24T11:42:35;6.55;;;1.67;;
32613;SDS011;19031;51.400;6.770;2023-04-24T11:45:06;1.58;;;1.08;;
32613;SDS011;19031;51.400;6.770;2023-04-24T11:47:36;4.90;;;1.60;;
32613;SDS011;19031;51.400;6.770;2023-04-24T11:50:03;6.05;;;1.50;;
32613;SDS011;19031;51.400;6.770;2023-04-24T11:52:30;3.30;;;1.30;;
32613;SDS011;19031;51.400;6.770;2023-04-24T11:54:56;4.97;;;1.80;;
32613;SDS011;19031;51.400;6.770;2023-04-24T11:57:22;3.55;;;1.73;;
32613;SDS011;19031;51.400;6.770;2023-04-24T11:59:51;2.70;;;1.77;;
32613;SDS011;19031;51.400;6.770;2023-04-24T12:02:23;6.80;;;1.95;;
32613;SDS011;19031;51.400;6.770;2023-04-24T12:04:50;3.97;;;1.55;;
32613;SDS011;19031;51.400;6.770;2023-04-24T12:07:16;3.10;;;1.38;;
32613;SDS011;19031;51.400;6.770;2023-04-24T12:09:48;4.07;;;1.70;;
32613;SDS011;19031;51.400;6.770;2023-04-24T12:12:25;3.80;;;1.60;;
32613;SDS011;19031;51.400;6.770;2023-04-24T12:14:53;3.13;;;1.33;;
32613;SDS011;19031;51.400;6.770;2023-04-24T12:17:23;2.60;;;0.93;;
32613;SDS011;19031;51.400;6.770;2023-04-24T12:19:51;3.22;;;1.00;;
32613;SDS011;19031;51.400;6.770;2023-04-24T12:22:16;4.22;;;1.23;;
32613;SDS011;19031;51.400;6.770;2023-04-24T12:27:24;1.75;;;0.70;;
32613;SDS011;19031;51.400;6.770;2023-04-24T12:29:56;1.65;;;0.90;;
32613;SDS011;19031;51.400;6.770;2023-04-24T12:32:23;4.93;;;1.27;;
32613;SDS011;19031;51.400;6.770;2023-04-24T12:34:50;2.65;;;1.08;;
32613;SDS011;19031;51.400;6.770;2023-04-24T12:37:19;7.55;;;1.15;;
32613;SDS011;19031;51.400;6.770;2023-04-24T12:40:06;6.32;;;1.00;;
32613;SDS011;19031;51.400;6.770;2023-04-24T12:42:32;7.13;;;1.02;;
32613;SDS011;19031;51.400;6.770;2023-04-24T12:45:02;6.65;;;1.05;;
32613;SDS011;19031;51.400;6.770;2023-04-24T12:47:29;1.00;;;0.70;;
32613;SDS011;19031;51.400;6.770;2023-04-24T12:49:56;1.83;;;0.75;;
32613;SDS011;19031;51.400;6.770;2023-04-24T12:52:22;1.15;;;0.50;;
32613;SDS011;19031;51.400;6.770;2023-04-24T12:54:54;3.72;;;0.88;;
32613;SDS011;19031;51.400;6.770;2023-04-24T12:57:22;3.60;;;0.77;;
32613;SDS011;19031;51.400;6.770;2023-04-24T12:59:48;0.70;;;0.40;;
32613;SDS011;19031;51.400;6.770;2023-04-24T13:02:14;6.05;;;0.40;;
32613;SDS011;19031;51.400;6.770;2023-04-24T13:04:43;1.80;;;0.55;;
32613;SDS011;19031;51.400;6.770;2023-04-24T13:07:09;4.57;;;0.60;;
32613;SDS011;19031;51.400;6.770;2023-04-24T13:09:35;4.30;;;0.70;;
32613;SDS011;19031;51.400;6.770;2023-04-24T13:12:01;3.65;;;1.10;;
32613;SDS011;19031;51.400;6.770;2023-04-24T13:14:26;1.33;;;0.40;;
32613;SDS011;19031;51.400;6.770;2023-04-24T13:16:52;1.08;;;0.50;;
32613;SDS011;19031;51.400;6.770;2023-04-24T13:19:18;3.08;;;0.60;;
32613;SDS011;19031;51.400;6.770;2023-04-24T13:21:43;0.75;;;0.43;;
32613;SDS011;19031;51.400;6.770;2023-04-24T13:24:09;5.50;;;0.75;;
32613;SDS011;19031;51.400;6.770;2023-04-24T13:26:35;3.00;;;0.47;;
32613;SDS011;19031;51.400;6.770;2023-04-24T13:29:00;4.28;;;0.60;;
32613;SDS011;19031;51.400;6.770;2023-04-24T13:31:26;2.17;;;0.40;;
32613;SDS011;19031;51.400;6.770;2023-04-24T13:33:51;3.50;;;0.68;;
32613;SDS011;19031;51.400;6.770;2023-04-24T13:36:17;2.55;;;0.60;;
32613;SDS011;19031;51.400;6.770;2023-04-24T13:38:43;0.90;;;0.45;;
32613;SDS011;19031;51.400;6.770;2023-04-24T13:41:09;2.80;;;0.40;;
32613;SDS011;19031;51.400;6.770;2023-04-24T13:43:35;3.30;;;0.40;;
32613;SDS011;19031;51.400;6.770;2023-04-24T13:46:00;1.85;;;0.50;;
32613;SDS011;19031;51.400;6.770;2023-04-24T13:48:28;2.55;;;0.52;;
32613;SDS011;19031;51.400;6.770;2023-04-24T13:50:54;1.02;;;0.52;;
32613;SDS011;19031;51.400;6.770;2023-04-24T13:53:19;4.22;;;0.88;;
32613;SDS011;19031;51.400;6.770;2023-04-24T13:55:45;2.58;;;0.40;;
32613;SDS011;19031;51.400;6.770;2023-04-24T13:58:10;2.05;;;0.60;;
32613;SDS011;19031;51.400;6.770;2023-04-24T14:00:36;0.70;;;0.50;;
32613;SDS011;19031;51.400;6.770;2023-04-24T14:03:02;4.47;;;0.63;;
32613;SDS011;19031;51.400;6.770;2023-04-24T14:05:27;3.05;;;0.50;;
32613;SDS011;19031;51.400;6.770;2023-04-24T14:07:53;2.00;;;0.40;;
32613;SDS011;19031;51.400;6.770;2023-04-24T14:10:18;3.42;;;0.70;;
32613;SDS011;19031;51.400;6.770;2023-04-24T14:12:44;1.33;;;0.50;;
32613;SDS011;19031;51.400;6.770;2023-04-24T14:15:10;3.35;;;0.82;;
32613;SDS011;19031;51.400;6.770;2023-04-24T14:17:36;1.17;;;0.52;;
32613;SDS011;19031;51.400;6.770;2023-04-24T14:20:01;2.30;;;0.70;;
32613;SDS011;19031;51.400;6.770;2023-04-24T14:22:29;1.02;;;0.50;;
32613;SDS011;19031;51.400;6.770;2023-04-24T14:24:55;4.78;;;0.90;;
32613;SDS011;19031;51.400;6.770;2023-04-24T14:27:20;1.98;;;0.63;;
32613;SDS011;19031;51.400;6.770;2023-04-24T14:29:46;0.88;;;0.50;;
32613;SDS011;19031;51.400;6.770;2023-04-24T14:32:11;1.30;;;0.47;;
32613;SDS011;19031;51.400;6.770;2023-04-24T14:34:39;1.48;;;0.50;;
32613;SDS011;19031;51.400;6.770;2023-04-24T14:37:05;2.20;;;0.80;;
32613;SDS011;19031;51.400;6.770;2023-04-24T14:39:31;2.45;;;0.60;;
32613;SDS011;19031;51.400;6.770;2023-04-24T14:41:56;0.73;;;0.40;;
32613;SDS011;19031;51.400;6.770;2023-04-24T14:44:22;1.60;;;0.30;;
32613;SDS011;19031;51.400;6.770;2023-04-24T14:46:48;1.15;;;0.30;;
32613;SDS011;19031;51.400;6.770;2023-04-24T14:49:14;1.00;;;0.43;;
32613;SDS011;19031;51.400;6.770;2023-04-24T14:51:40;0.82;;;0.50;;
32613;SDS011;19031;51.400;6.770;2023-04-24T14:54:06;1.17;;;0.70;;
32613;SDS011;19031;51.400;6.770;2023-04-24T14:56:31;1.75;;;0.32;;